Trident — ZCYT9 — position and weather

sailwx.info

Track history (hours):
 
Tides and Currents Weather Stations Pressure Air Temp Water Temp Dewpoint Dewpoint Depression Visibility Wind Speed Wind Dir Waves Ship Positions

Trident

Last reported at 2017-Aug-22 12:03 UTC. Time now 2017-Aug-23 23:27 UTC.
Position N 37°36' E 023°59'.

Length 66 m; draft 3.4 m.

Type: Pleasure craft. MMSI: 319764000.

Date/timePositionNaut miles runAvg speedWind from/ knotsBaromVisibWave heightAir tempDewpointWater temp
2017-Aug-22 12:03N 37°36' E 023°59'414.3
2017-Aug-22 11:47N 37°38' E 023°56'414.1
2017-Aug-22 11:29N 37°41' E 023°51'714.4
2017-Aug-22 11:00N 37°45' E 023°45'815.5
2017-Aug-22 10:30N 37°52' E 023°40'4 7.9
2017-Aug-22 10:00N 37°56' E 023°41'0 0.1
2017-Aug-22 09:30N 37°56' E 023°41'0 0.0
2017-Aug-22 09:00N 37°56' E 023°41'0 0.0
2017-Aug-22 08:30N 37°56' E 023°41'0 0.0
2017-Aug-22 08:00N 37°56' E 023°41'0 0.0
2017-Aug-22 07:30N 37°56' E 023°41'0 0.0
2017-Aug-22 07:00N 37°56' E 023°41'0 0.0
2017-Aug-22 06:30N 37°56' E 023°41'0 0.0
2017-Aug-22 06:00N 37°56' E 023°41'0 0.0
2017-Aug-22 05:30N 37°56' E 023°41'0 0.0
2017-Aug-22 05:00N 37°56' E 023°41'0 0.0
2017-Aug-22 04:27N 37°56' E 023°41'0 0.0
2017-Aug-22 04:00N 37°56' E 023°41'0 0.0
2017-Aug-22 03:30N 37°56' E 023°41'0 0.0
2017-Aug-22 03:00N 37°56' E 023°41'0 0.0
2017-Aug-22 02:30N 37°56' E 023°41'0 0.0
2017-Aug-22 02:00N 37°56' E 023°41'0 0.0
2017-Aug-22 01:30N 37°56' E 023°41'0 0.0
2017-Aug-22 01:00N 37°56' E 023°41'0 0.0
2017-Aug-22 00:30N 37°56' E 023°41'0 0.0
2017-Aug-22 00:00N 37°56' E 023°41'0 0.0
2017-Aug-21 23:30N 37°56' E 023°41'0 0.0
2017-Aug-21 23:00N 37°56' E 023°41'0 0.0
2017-Aug-21 22:30N 37°56' E 023°41'0 0.0
2017-Aug-21 22:00N 37°56' E 023°41'0 0.0
2017-Aug-21 21:27N 37°56' E 023°41'0 0.0
2017-Aug-21 21:00N 37°56' E 023°41'0 0.0
2017-Aug-21 20:27N 37°56' E 023°41'0 0.0
2017-Aug-21 20:00N 37°56' E 023°41'0 0.0
2017-Aug-21 19:30N 37°56' E 023°41'0 0.0
2017-Aug-21 19:00N 37°56' E 023°41'0 0.0
2017-Aug-21 18:30N 37°56' E 023°41'0 0.0
2017-Aug-21 18:00N 37°56' E 023°41'1 3.0
2017-Aug-21 17:30N 37°55' E 023°39'714.6
2017-Aug-21 17:00N 37°53' E 023°30'815.3
2017-Aug-21 16:30N 37°52' E 023°21'25 6.6
2017-Aug-21 12:46N 38°05' E 022°54'514.4
2017-Aug-21 12:26N 38°08' E 022°59'0 0.1
2017-Aug-21 08:55N 38°07' E 022°59'0 0.0
2017-Aug-21 08:27N 38°07' E 022°59'0 0.0
2017-Aug-21 07:42N 38°07' E 022°59'0 0.0
2017-Aug-21 07:28N 38°07' E 022°59'0 0.0
2017-Aug-21 06:56N 38°07' E 022°59'0 0.0
2017-Aug-21 06:30N 38°07' E 022°59'113 8.5
2017-Aug-20 17:11N 37°52' E 020°37'0 0.0
2017-Aug-20 17:01N 37°52' E 020°37'0 0.0
2017-Aug-20 16:30N 37°52' E 020°37'0 0.0
2017-Aug-20 16:00N 37°52' E 020°37'0 0.0
2017-Aug-20 13:01N 37°52' E 020°37'0 0.0
2017-Aug-20 13:00N 37°52' E 020°37'0 0.0
2017-Aug-20 11:51N 37°52' E 020°37'0 0.0
2017-Aug-20 11:30N 37°52' E 020°37'0 0.0
2017-Aug-20 11:00N 37°52' E 020°37'0 0.0
2017-Aug-20 10:30N 37°52' E 020°37'0 0.0
2017-Aug-20 09:50N 37°52' E 020°37'0 0.1
2017-Aug-20 09:30N 37°52' E 020°37'0 0.0
2017-Aug-20 06:23N 37°52' E 020°37'0 0.0
2017-Aug-20 05:55N 37°52' E 020°37'0 0.0
2017-Aug-20 05:27N 37°52' E 020°37'36 8.9
2017-Aug-20 01:21N 38°27' E 020°25'  
Track history (hours):
 
Tides and Currents Weather Stations Pressure Air Temp Water Temp Dewpoint Dewpoint Depression Visibility Wind Speed Wind Dir Waves Ship Positions

Trident

Last reported at 2017-Aug-22 12:03 UTC. Time now 2017-Aug-23 23:27 UTC.
Position N 37°36' E 023°59'.

Length 66 m; draft 3.4 m.

Type: Pleasure craft. MMSI: 319764000.

Date/timePositionNaut miles runAvg speedWind from/ knotsBaromVisibWave heightAir tempDewpointWater temp
2017-Aug-22 12:03N 37°36' E 023°59'414.3
2017-Aug-22 11:47N 37°38' E 023°56'414.1
2017-Aug-22 11:29N 37°41' E 023°51'714.4
2017-Aug-22 11:00N 37°45' E 023°45'815.5
2017-Aug-22 10:30N 37°52' E 023°40'4 7.9
2017-Aug-22 10:00N 37°56' E 023°41'0 0.1
2017-Aug-22 09:30N 37°56' E 023°41'0 0.0
2017-Aug-22 09:00N 37°56' E 023°41'0 0.0
2017-Aug-22 08:30N 37°56' E 023°41'0 0.0
2017-Aug-22 08:00N 37°56' E 023°41'0 0.0
2017-Aug-22 07:30N 37°56' E 023°41'0 0.0
2017-Aug-22 07:00N 37°56' E 023°41'0 0.0
2017-Aug-22 06:30N 37°56' E 023°41'0 0.0
2017-Aug-22 06:00N 37°56' E 023°41'0 0.0
2017-Aug-22 05:30N 37°56' E 023°41'0 0.0
2017-Aug-22 05:00N 37°56' E 023°41'0 0.0
2017-Aug-22 04:27N 37°56' E 023°41'0 0.0
2017-Aug-22 04:00N 37°56' E 023°41'0 0.0
2017-Aug-22 03:30N 37°56' E 023°41'0 0.0
2017-Aug-22 03:00N 37°56' E 023°41'0 0.0
2017-Aug-22 02:30N 37°56' E 023°41'0 0.0
2017-Aug-22 02:00N 37°56' E 023°41'0 0.0
2017-Aug-22 01:30N 37°56' E 023°41'0 0.0
2017-Aug-22 01:00N 37°56' E 023°41'0 0.0
2017-Aug-22 00:30N 37°56' E 023°41'0 0.0
2017-Aug-22 00:00N 37°56' E 023°41'0 0.0
2017-Aug-21 23:30N 37°56' E 023°41'0 0.0
2017-Aug-21 23:00N 37°56' E 023°41'0 0.0
2017-Aug-21 22:30N 37°56' E 023°41'0 0.0
2017-Aug-21 22:00N 37°56' E 023°41'0 0.0
2017-Aug-21 21:27N 37°56' E 023°41'0 0.0
2017-Aug-21 21:00N 37°56' E 023°41'0 0.0
2017-Aug-21 20:27N 37°56' E 023°41'0 0.0
2017-Aug-21 20:00N 37°56' E 023°41'0 0.0
2017-Aug-21 19:30N 37°56' E 023°41'0 0.0
2017-Aug-21 19:00N 37°56' E 023°41'0 0.0
2017-Aug-21 18:30N 37°56' E 023°41'0 0.0
2017-Aug-21 18:00N 37°56' E 023°41'1 3.0
2017-Aug-21 17:30N 37°55' E 023°39'714.6
2017-Aug-21 17:00N 37°53' E 023°30'815.3
2017-Aug-21 16:30N 37°52' E 023°21'25 6.6
2017-Aug-21 12:46N 38°05' E 022°54'514.4
2017-Aug-21 12:26N 38°08' E 022°59'0 0.1
2017-Aug-21 08:55N 38°07' E 022°59'0 0.0
2017-Aug-21 08:27N 38°07' E 022°59'0 0.0
2017-Aug-21 07:42N 38°07' E 022°59'0 0.0
2017-Aug-21 07:28N 38°07' E 022°59'0 0.0
2017-Aug-21 06:56N 38°07' E 022°59'0 0.0
2017-Aug-21 06:30N 38°07' E 022°59'113 8.5
2017-Aug-20 17:11N 37°52' E 020°37'0 0.0
2017-Aug-20 17:01N 37°52' E 020°37'0 0.0
2017-Aug-20 16:30N 37°52' E 020°37'0 0.0
2017-Aug-20 16:00N 37°52' E 020°37'0 0.0
2017-Aug-20 13:01N 37°52' E 020°37'0 0.0
2017-Aug-20 13:00N 37°52' E 020°37'0 0.0
2017-Aug-20 11:51N 37°52' E 020°37'0 0.0
2017-Aug-20 11:30N 37°52' E 020°37'0 0.0
2017-Aug-20 11:00N 37°52' E 020°37'0 0.0
2017-Aug-20 10:30N 37°52' E 020°37'0 0.0
2017-Aug-20 09:50N 37°52' E 020°37'0 0.1
2017-Aug-20 09:30N 37°52' E 020°37'0 0.0
2017-Aug-20 06:23N 37°52' E 020°37'0 0.0
2017-Aug-20 05:55N 37°52' E 020°37'0 0.0
2017-Aug-20 05:27N 37°52' E 020°37'36 8.9
2017-Aug-20 01:21N 38°27' E 020°25'  

Dump ship's entire track history